sensor_id;sensor_type;location;lat;lon;timestamp;P1;durP1;ratioP1;P2;durP2;ratioP2
84879;SDS011;75141;51.398;21.154;2024-03-08T00:00:27;195.93;;;81.30;;
84879;SDS011;75141;51.398;21.154;2024-03-08T00:01:48;182.63;;;75.82;;
84879;SDS011;75141;51.398;21.154;2024-03-08T00:02:49;192.60;;;79.40;;
84879;SDS011;75141;51.398;21.154;2024-03-08T00:03:51;184.77;;;79.60;;
84879;SDS011;75141;51.398;21.154;2024-03-08T00:04:52;191.60;;;81.53;;
84879;SDS011;75141;51.398;21.154;2024-03-08T00:05:52;189.93;;;83.47;;
84879;SDS011;75141;51.398;21.154;2024-03-08T00:06:53;197.27;;;81.20;;
84879;SDS011;75141;51.398;21.154;2024-03-08T00:07:54;192.82;;;76.65;;
84879;SDS011;75141;51.398;21.154;2024-03-08T00:08:54;200.52;;;79.75;;
84879;SDS011;75141;51.398;21.154;2024-03-08T00:09:56;198.75;;;81.68;;
84879;SDS011;75141;51.398;21.154;2024-03-08T00:10:57;191.05;;;83.53;;
84879;SDS011;75141;51.398;21.154;2024-03-08T00:11:57;207.13;;;87.13;;
84879;SDS011;75141;51.398;21.154;2024-03-08T00:12:58;224.20;;;85.57;;
84879;SDS011;75141;51.398;21.154;2024-03-08T00:14:01;202.00;;;84.22;;
84879;SDS011;75141;51.398;21.154;2024-03-08T00:15:02;191.95;;;83.50;;
84879;SDS011;75141;51.398;21.154;2024-03-08T00:16:03;203.38;;;83.07;;
84879;SDS011;75141;51.398;21.154;2024-03-08T00:17:03;213.38;;;86.38;;
84879;SDS011;75141;51.398;21.154;2024-03-08T00:18:04;207.70;;;90.00;;
84879;SDS011;75141;51.398;21.154;2024-03-08T00:19:05;230.60;;;97.30;;
84879;SDS011;75141;51.398;21.154;2024-03-08T00:20:06;196.32;;;84.13;;
84879;SDS011;75141;51.398;21.154;2024-03-08T00:21:08;235.95;;;96.13;;
84879;SDS011;75141;51.398;21.154;2024-03-08T00:22:10;210.50;;;93.90;;
84879;SDS011;75141;51.398;21.154;2024-03-08T00:23:12;208.68;;;90.50;;
84879;SDS011;75141;51.398;21.154;2024-03-08T00:24:12;217.05;;;95.18;;
84879;SDS011;75141;51.398;21.154;2024-03-08T00:25:13;228.18;;;99.43;;
84879;SDS011;75141;51.398;21.154;2024-03-08T00:26:13;222.50;;;95.18;;
84879;SDS011;75141;51.398;21.154;2024-03-08T00:27:14;234.88;;;97.63;;
84879;SDS011;75141;51.398;21.154;2024-03-08T00:28:16;234.52;;;95.22;;
84879;SDS011;75141;51.398;21.154;2024-03-08T00:29:17;241.05;;;95.00;;
84879;SDS011;75141;51.398;21.154;2024-03-08T00:30:17;234.52;;;94.72;;
84879;SDS011;75141;51.398;21.154;2024-03-08T00:31:23;225.57;;;93.57;;
84879;SDS011;75141;51.398;21.154;2024-03-08T00:32:24;235.60;;;98.97;;
84879;SDS011;75141;51.398;21.154;2024-03-08T00:33:25;233.02;;;96.10;;
84879;SDS011;75141;51.398;21.154;2024-03-08T00:34:26;229.07;;;98.00;;
84879;SDS011;75141;51.398;21.154;2024-03-08T00:35:26;236.63;;;97.35;;
84879;SDS011;75141;51.398;21.154;2024-03-08T00:36:27;241.55;;;100.00;;
84879;SDS011;75141;51.398;21.154;2024-03-08T00:37:30;237.77;;;99.78;;
84879;SDS011;75141;51.398;21.154;2024-03-08T00:38:31;235.18;;;98.95;;
84879;SDS011;75141;51.398;21.154;2024-03-08T00:39:32;249.52;;;101.20;;
84879;SDS011;75141;51.398;21.154;2024-03-08T00:40:33;242.50;;;99.60;;
84879;SDS011;75141;51.398;21.154;2024-03-08T00:41:33;243.73;;;99.68;;
84879;SDS011;75141;51.398;21.154;2024-03-08T00:42:34;238.73;;;99.18;;
84879;SDS011;75141;51.398;21.154;2024-03-08T00:43:35;236.38;;;100.28;;
84879;SDS011;75141;51.398;21.154;2024-03-08T00:44:35;232.57;;;97.55;;
84879;SDS011;75141;51.398;21.154;2024-03-08T00:45:36;241.25;;;98.65;;
84879;SDS011;75141;51.398;21.154;2024-03-08T00:46:37;240.57;;;98.07;;
84879;SDS011;75141;51.398;21.154;2024-03-08T00:47:38;229.75;;;93.07;;
84879;SDS011;75141;51.398;21.154;2024-03-08T00:48:39;244.88;;;99.53;;
84879;SDS011;75141;51.398;21.154;2024-03-08T00:49:43;246.98;;;101.30;;
84879;SDS011;75141;51.398;21.154;2024-03-08T00:50:44;250.88;;;102.15;;
84879;SDS011;75141;51.398;21.154;2024-03-08T00:51:48;240.15;;;98.32;;
84879;SDS011;75141;51.398;21.154;2024-03-08T00:52:49;239.82;;;100.03;;
84879;SDS011;75141;51.398;21.154;2024-03-08T00:53:50;247.73;;;102.03;;
84879;SDS011;75141;51.398;21.154;2024-03-08T00:54:51;231.65;;;98.57;;
84879;SDS011;75141;51.398;21.154;2024-03-08T00:55:51;234.15;;;100.95;;
84879;SDS011;75141;51.398;21.154;2024-03-08T00:56:52;240.43;;;93.03;;
84879;SDS011;75141;51.398;21.154;2024-03-08T00:57:52;243.95;;;100.95;;
84879;SDS011;75141;51.398;21.154;2024-03-08T00:58:53;237.55;;;98.40;;
84879;SDS011;75141;51.398;21.154;2024-03-08T00:59:54;236.15;;;97.82;;
84879;SDS011;75141;51.398;21.154;2024-03-08T01:00:56;240.13;;;95.50;;
84879;SDS011;75141;51.398;21.154;2024-03-08T01:01:57;226.68;;;96.95;;
84879;SDS011;75141;51.398;21.154;2024-03-08T01:02:59;221.52;;;93.45;;
84879;SDS011;75141;51.398;21.154;2024-03-08T01:04:00;224.73;;;96.32;;
84879;SDS011;75141;51.398;21.154;2024-03-08T01:05:01;231.15;;;98.15;;
84879;SDS011;75141;51.398;21.154;2024-03-08T01:06:02;231.27;;;95.97;;
84879;SDS011;75141;51.398;21.154;2024-03-08T01:07:02;240.18;;;96.63;;
84879;SDS011;75141;51.398;21.154;2024-03-08T01:08:03;243.60;;;98.70;;
84879;SDS011;75141;51.398;21.154;2024-03-08T01:09:05;237.63;;;100.82;;
84879;SDS011;75141;51.398;21.154;2024-03-08T01:10:07;245.55;;;97.82;;
84879;SDS011;75141;51.398;21.154;2024-03-08T01:11:09;254.43;;;101.75;;
84879;SDS011;75141;51.398;21.154;2024-03-08T01:12:10;233.32;;;98.85;;
84879;SDS011;75141;51.398;21.154;2024-03-08T01:13:11;239.48;;;99.88;;
84879;SDS011;75141;51.398;21.154;2024-03-08T01:14:11;257.08;;;103.00;;
84879;SDS011;75141;51.398;21.154;2024-03-08T01:15:12;236.30;;;101.13;;
84879;SDS011;75141;51.398;21.154;2024-03-08T01:16:13;245.85;;;102.05;;
84879;SDS011;75141;51.398;21.154;2024-03-08T01:17:13;248.77;;;101.82;;
84879;SDS011;75141;51.398;21.154;2024-03-08T01:18:14;266.15;;;106.65;;
84879;SDS011;75141;51.398;21.154;2024-03-08T01:19:14;257.63;;;102.22;;
84879;SDS011;75141;51.398;21.154;2024-03-08T01:20:16;246.10;;;104.25;;
84879;SDS011;75141;51.398;21.154;2024-03-08T01:21:18;238.27;;;99.65;;
84879;SDS011;75141;51.398;21.154;2024-03-08T01:22:19;253.20;;;104.78;;
84879;SDS011;75141;51.398;21.154;2024-03-08T01:23:19;246.60;;;102.53;;
84879;SDS011;75141;51.398;21.154;2024-03-08T01:24:20;249.02;;;102.72;;
84879;SDS011;75141;51.398;21.154;2024-03-08T01:25:20;255.57;;;105.40;;
84879;SDS011;75141;51.398;21.154;2024-03-08T01:26:21;263.20;;;104.13;;
84879;SDS011;75141;51.398;21.154;2024-03-08T01:27:21;245.23;;;104.15;;
84879;SDS011;75141;51.398;21.154;2024-03-08T01:28:23;251.30;;;105.03;;
84879;SDS011;75141;51.398;21.154;2024-03-08T01:29:24;250.25;;;105.70;;
84879;SDS011;75141;51.398;21.154;2024-03-08T01:30:24;248.15;;;106.20;;
84879;SDS011;75141;51.398;21.154;2024-03-08T01:31:25;264.30;;;109.18;;
84879;SDS011;75141;51.398;21.154;2024-03-08T01:32:25;253.43;;;104.57;;
84879;SDS011;75141;51.398;21.154;2024-03-08T01:33:26;249.20;;;104.15;;
84879;SDS011;75141;51.398;21.154;2024-03-08T01:34:27;251.82;;;104.85;;
84879;SDS011;75141;51.398;21.154;2024-03-08T01:35:29;266.90;;;101.57;;
84879;SDS011;75141;51.398;21.154;2024-03-08T01:36:30;264.17;;;107.10;;
84879;SDS011;75141;51.398;21.154;2024-03-08T01:37:30;270.98;;;105.05;;
84879;SDS011;75141;51.398;21.154;2024-03-08T01:38:31;251.85;;;105.63;;
84879;SDS011;75141;51.398;21.154;2024-03-08T01:39:31;269.70;;;98.43;;
84879;SDS011;75141;51.398;21.154;2024-03-08T01:40:33;253.20;;;102.45;;
84879;SDS011;75141;51.398;21.154;2024-03-08T01:41:33;260.65;;;102.93;;
84879;SDS011;75141;51.398;21.154;2024-03-08T01:42:34;250.85;;;100.68;;
84879;SDS011;75141;51.398;21.154;2024-03-08T01:43:37;258.00;;;102.90;;
84879;SDS011;75141;51.398;21.154;2024-03-08T01:44:38;250.50;;;105.65;;
84879;SDS011;75141;51.398;21.154;2024-03-08T01:45:39;259.58;;;101.35;;
84879;SDS011;75141;51.398;21.154;2024-03-08T01:46:40;264.52;;;102.88;;
84879;SDS011;75141;51.398;21.154;2024-03-08T01:47:40;248.15;;;105.18;;
84879;SDS011;75141;51.398;21.154;2024-03-08T01:48:41;261.58;;;103.75;;
84879;SDS011;75141;51.398;21.154;2024-03-08T01:49:42;263.15;;;102.63;;
84879;SDS011;75141;51.398;21.154;2024-03-08T01:50:42;275.60;;;107.32;;
84879;SDS011;75141;51.398;21.154;2024-03-08T01:51:44;264.15;;;104.10;;
84879;SDS011;75141;51.398;21.154;2024-03-08T01:52:45;266.30;;;103.85;;
84879;SDS011;75141;51.398;21.154;2024-03-08T01:53:46;267.63;;;103.80;;
84879;SDS011;75141;51.398;21.154;2024-03-08T01:54:46;256.63;;;106.57;;
84879;SDS011;75141;51.398;21.154;2024-03-08T01:55:47;249.43;;;103.28;;
84879;SDS011;75141;51.398;21.154;2024-03-08T01:56:48;270.33;;;105.45;;
84879;SDS011;75141;51.398;21.154;2024-03-08T01:57:49;252.40;;;103.90;;
84879;SDS011;75141;51.398;21.154;2024-03-08T01:58:49;262.17;;;102.82;;
84879;SDS011;75141;51.398;21.154;2024-03-08T01:59:50;253.82;;;104.35;;
84879;SDS011;75141;51.398;21.154;2024-03-08T02:00:51;266.80;;;107.18;;
84879;SDS011;75141;51.398;21.154;2024-03-08T02:01:55;259.73;;;106.15;;
84879;SDS011;75141;51.398;21.154;2024-03-08T02:02:55;274.40;;;107.07;;
84879;SDS011;75141;51.398;21.154;2024-03-08T02:03:56;273.90;;;109.43;;
84879;SDS011;75141;51.398;21.154;2024-03-08T02:04:57;272.77;;;99.00;;
84879;SDS011;75141;51.398;21.154;2024-03-08T02:05:58;274.38;;;110.15;;
84879;SDS011;75141;51.398;21.154;2024-03-08T02:07:01;273.77;;;108.45;;
84879;SDS011;75141;51.398;21.154;2024-03-08T02:08:02;268.98;;;109.63;;
84879;SDS011;75141;51.398;21.154;2024-03-08T02:09:06;291.58;;;112.93;;
84879;SDS011;75141;51.398;21.154;2024-03-08T02:10:07;275.25;;;106.45;;
84879;SDS011;75141;51.398;21.154;2024-03-08T02:11:08;283.67;;;112.82;;
84879;SDS011;75141;51.398;21.154;2024-03-08T02:12:08;279.88;;;110.63;;
84879;SDS011;75141;51.398;21.154;2024-03-08T02:13:09;260.15;;;104.97;;
84879;SDS011;75141;51.398;21.154;2024-03-08T02:14:10;282.13;;;112.57;;
84879;SDS011;75141;51.398;21.154;2024-03-08T02:15:14;284.67;;;109.43;;
84879;SDS011;75141;51.398;21.154;2024-03-08T02:16:20;276.70;;;107.72;;
84879;SDS011;75141;51.398;21.154;2024-03-08T02:17:21;279.98;;;105.95;;
84879;SDS011;75141;51.398;21.154;2024-03-08T02:18:22;282.17;;;108.65;;
84879;SDS011;75141;51.398;21.154;2024-03-08T02:19:23;268.27;;;106.45;;
84879;SDS011;75141;51.398;21.154;2024-03-08T02:20:23;269.73;;;106.00;;
84879;SDS011;75141;51.398;21.154;2024-03-08T02:21:24;288.88;;;107.60;;
84879;SDS011;75141;51.398;21.154;2024-03-08T02:22:25;260.30;;;107.57;;
84879;SDS011;75141;51.398;21.154;2024-03-08T02:23:25;266.92;;;105.45;;
84879;SDS011;75141;51.398;21.154;2024-03-08T02:24:26;274.17;;;108.25;;
84879;SDS011;75141;51.398;21.154;2024-03-08T02:25:27;265.92;;;106.38;;
84879;SDS011;75141;51.398;21.154;2024-03-08T02:26:28;283.92;;;108.95;;
84879;SDS011;75141;51.398;21.154;2024-03-08T02:27:28;269.33;;;104.93;;
84879;SDS011;75141;51.398;21.154;2024-03-08T02:28:30;272.30;;;103.28;;
84879;SDS011;75141;51.398;21.154;2024-03-08T02:29:31;265.60;;;104.35;;
84879;SDS011;75141;51.398;21.154;2024-03-08T02:30:31;271.17;;;105.22;;
84879;SDS011;75141;51.398;21.154;2024-03-08T02:31:32;273.33;;;103.95;;
84879;SDS011;75141;51.398;21.154;2024-03-08T02:32:33;252.52;;;100.88;;
84879;SDS011;75141;51.398;21.154;2024-03-08T02:33:34;269.48;;;104.47;;
84879;SDS011;75141;51.398;21.154;2024-03-08T02:34:34;259.48;;;103.60;;
84879;SDS011;75141;51.398;21.154;2024-03-08T02:35:35;268.08;;;102.97;;
84879;SDS011;75141;51.398;21.154;2024-03-08T02:36:35;264.55;;;104.25;;
84879;SDS011;75141;51.398;21.154;2024-03-08T02:37:36;267.50;;;106.72;;
84879;SDS011;75141;51.398;21.154;2024-03-08T02:38:37;257.98;;;100.82;;
84879;SDS011;75141;51.398;21.154;2024-03-08T02:39:38;262.98;;;103.05;;
84879;SDS011;75141;51.398;21.154;2024-03-08T02:40:38;249.00;;;100.28;;
84879;SDS011;75141;51.398;21.154;2024-03-08T02:41:39;258.73;;;101.07;;
84879;SDS011;75141;51.398;21.154;2024-03-08T02:42:40;264.73;;;102.20;;
84879;SDS011;75141;51.398;21.154;2024-03-08T02:43:40;256.35;;;102.00;;
84879;SDS011;75141;51.398;21.154;2024-03-08T02:44:44;259.77;;;101.68;;
84879;SDS011;75141;51.398;21.154;2024-03-08T02:45:44;235.10;;;94.35;;
84879;SDS011;75141;51.398;21.154;2024-03-08T02:46:45;253.80;;;99.90;;
84879;SDS011;75141;51.398;21.154;2024-03-08T02:47:46;255.18;;;99.70;;
84879;SDS011;75141;51.398;21.154;2024-03-08T02:48:46;246.18;;;98.80;;
84879;SDS011;75141;51.398;21.154;2024-03-08T02:49:47;251.02;;;99.43;;
84879;SDS011;75141;51.398;21.154;2024-03-08T02:50:48;236.23;;;92.93;;
84879;SDS011;75141;51.398;21.154;2024-03-08T02:51:48;245.93;;;94.95;;
84879;SDS011;75141;51.398;21.154;2024-03-08T02:52:49;246.65;;;97.63;;
84879;SDS011;75141;51.398;21.154;2024-03-08T02:53:49;254.77;;;97.20;;
84879;SDS011;75141;51.398;21.154;2024-03-08T02:54:52;238.88;;;96.13;;
84879;SDS011;75141;51.398;21.154;2024-03-08T02:55:52;239.77;;;96.05;;
84879;SDS011;75141;51.398;21.154;2024-03-08T02:56:53;240.07;;;98.57;;
84879;SDS011;75141;51.398;21.154;2024-03-08T02:57:53;252.13;;;94.00;;
84879;SDS011;75141;51.398;21.154;2024-03-08T02:58:57;228.95;;;94.78;;
84879;SDS011;75141;51.398;21.154;2024-03-08T02:59:57;243.38;;;93.45;;
84879;SDS011;75141;51.398;21.154;2024-03-08T03:00:59;243.63;;;98.13;;
84879;SDS011;75141;51.398;21.154;2024-03-08T03:02:00;255.70;;;97.72;;
84879;SDS011;75141;51.398;21.154;2024-03-08T03:03:01;232.63;;;96.75;;
84879;SDS011;75141;51.398;21.154;2024-03-08T03:04:03;238.88;;;91.65;;
84879;SDS011;75141;51.398;21.154;2024-03-08T03:05:04;236.82;;;95.35;;
84879;SDS011;75141;51.398;21.154;2024-03-08T03:06:06;230.02;;;87.75;;
84879;SDS011;75141;51.398;21.154;2024-03-08T03:07:07;229.27;;;93.63;;
84879;SDS011;75141;51.398;21.154;2024-03-08T03:08:08;230.20;;;97.75;;
84879;SDS011;75141;51.398;21.154;2024-03-08T03:09:09;241.40;;;93.30;;
84879;SDS011;75141;51.398;21.154;2024-03-08T03:10:11;240.77;;;98.15;;
84879;SDS011;75141;51.398;21.154;2024-03-08T03:11:12;240.73;;;96.20;;
84879;SDS011;75141;51.398;21.154;2024-03-08T03:12:13;242.32;;;96.05;;
84879;SDS011;75141;51.398;21.154;2024-03-08T03:13:14;230.27;;;94.55;;
84879;SDS011;75141;51.398;21.154;2024-03-08T03:14:15;235.73;;;91.53;;
84879;SDS011;75141;51.398;21.154;2024-03-08T03:15:16;233.63;;;94.75;;
84879;SDS011;75141;51.398;21.154;2024-03-08T03:16:20;230.27;;;87.65;;
84879;SDS011;75141;51.398;21.154;2024-03-08T03:17:20;226.15;;;90.88;;
84879;SDS011;75141;51.398;21.154;2024-03-08T03:18:21;220.15;;;88.97;;
84879;SDS011;75141;51.398;21.154;2024-03-08T03:19:24;219.95;;;83.95;;
84879;SDS011;75141;51.398;21.154;2024-03-08T03:20:24;218.88;;;88.47;;
84879;SDS011;75141;51.398;21.154;2024-03-08T03:21:32;217.05;;;88.00;;
84879;SDS011;75141;51.398;21.154;2024-03-08T03:22:36;221.35;;;88.93;;
84879;SDS011;75141;51.398;21.154;2024-03-08T03:23:37;209.77;;;89.05;;
84879;SDS011;75141;51.398;21.154;2024-03-08T03:24:37;216.65;;;88.70;;
84879;SDS011;75141;51.398;21.154;2024-03-08T03:25:38;227.35;;;90.95;;
84879;SDS011;75141;51.398;21.154;2024-03-08T03:26:41;221.63;;;90.88;;
84879;SDS011;75141;51.398;21.154;2024-03-08T03:27:46;220.18;;;91.45;;
84879;SDS011;75141;51.398;21.154;2024-03-08T03:28:47;219.82;;;87.90;;
84879;SDS011;75141;51.398;21.154;2024-03-08T03:29:48;231.48;;;86.00;;
84879;SDS011;75141;51.398;21.154;2024-03-08T03:30:49;219.15;;;87.32;;
84879;SDS011;75141;51.398;21.154;2024-03-08T03:31:51;208.07;;;87.40;;
84879;SDS011;75141;51.398;21.154;2024-03-08T03:32:53;217.90;;;88.45;;
84879;SDS011;75141;51.398;21.154;2024-03-08T03:33:54;218.70;;;90.20;;
84879;SDS011;75141;51.398;21.154;2024-03-08T03:34:55;220.27;;;87.57;;
84879;SDS011;75141;51.398;21.154;2024-03-08T03:35:55;214.70;;;86.03;;
84879;SDS011;75141;51.398;21.154;2024-03-08T03:36:56;225.35;;;83.57;;
84879;SDS011;75141;51.398;21.154;2024-03-08T03:37:57;207.85;;;86.50;;
84879;SDS011;75141;51.398;21.154;2024-03-08T03:39:07;207.48;;;85.38;;
84879;SDS011;75141;51.398;21.154;2024-03-08T03:40:13;211.75;;;86.32;;
84879;SDS011;75141;51.398;21.154;2024-03-08T03:41:13;210.07;;;84.72;;
84879;SDS011;75141;51.398;21.154;2024-03-08T03:42:15;203.57;;;85.43;;
84879;SDS011;75141;51.398;21.154;2024-03-08T03:43:17;209.07;;;86.57;;
84879;SDS011;75141;51.398;21.154;2024-03-08T03:44:17;211.10;;;85.72;;
84879;SDS011;75141;51.398;21.154;2024-03-08T03:45:18;206.43;;;85.38;;
84879;SDS011;75141;51.398;21.154;2024-03-08T03:46:20;209.10;;;83.32;;
84879;SDS011;75141;51.398;21.154;2024-03-08T03:47:21;210.43;;;84.40;;
84879;SDS011;75141;51.398;21.154;2024-03-08T03:48:21;203.55;;;84.60;;
84879;SDS011;75141;51.398;21.154;2024-03-08T03:49:22;208.95;;;87.85;;
84879;SDS011;75141;51.398;21.154;2024-03-08T03:50:24;198.02;;;82.45;;
84879;SDS011;75141;51.398;21.154;2024-03-08T03:51:25;198.55;;;84.43;;
84879;SDS011;75141;51.398;21.154;2024-03-08T03:52:26;207.13;;;84.68;;
84879;SDS011;75141;51.398;21.154;2024-03-08T03:53:26;217.43;;;87.97;;
84879;SDS011;75141;51.398;21.154;2024-03-08T03:54:27;209.05;;;83.03;;
84879;SDS011;75141;51.398;21.154;2024-03-08T03:55:31;214.30;;;85.80;;
84879;SDS011;75141;51.398;21.154;2024-03-08T03:56:31;202.63;;;82.90;;
84879;SDS011;75141;51.398;21.154;2024-03-08T03:57:32;209.30;;;86.22;;
84879;SDS011;75141;51.398;21.154;2024-03-08T03:58:32;210.73;;;86.20;;
84879;SDS011;75141;51.398;21.154;2024-03-08T03:59:33;211.50;;;85.88;;
84879;SDS011;75141;51.398;21.154;2024-03-08T04:00:34;203.32;;;83.70;;
84879;SDS011;75141;51.398;21.154;2024-03-08T04:01:34;215.52;;;85.30;;
84879;SDS011;75141;51.398;21.154;2024-03-08T04:02:35;206.73;;;85.07;;
84879;SDS011;75141;51.398;21.154;2024-03-08T04:03:36;199.60;;;86.75;;
84879;SDS011;75141;51.398;21.154;2024-03-08T04:04:37;201.65;;;85.85;;
84879;SDS011;75141;51.398;21.154;2024-03-08T04:05:38;218.85;;;88.97;;
84879;SDS011;75141;51.398;21.154;2024-03-08T04:06:39;195.98;;;82.93;;
84879;SDS011;75141;51.398;21.154;2024-03-08T04:07:40;210.68;;;84.95;;
84879;SDS011;75141;51.398;21.154;2024-03-08T04:08:41;226.60;;;97.30;;
84879;SDS011;75141;51.398;21.154;2024-03-08T04:09:41;202.40;;;84.47;;
84879;SDS011;75141;51.398;21.154;2024-03-08T04:10:42;207.93;;;87.15;;
84879;SDS011;75141;51.398;21.154;2024-03-08T04:11:43;207.10;;;91.30;;
84879;SDS011;75141;51.398;21.154;2024-03-08T04:12:43;206.18;;;88.28;;
84879;SDS011;75141;51.398;21.154;2024-03-08T04:13:45;199.25;;;83.70;;
84879;SDS011;75141;51.398;21.154;2024-03-08T04:14:45;193.02;;;84.18;;
84879;SDS011;75141;51.398;21.154;2024-03-08T04:15:46;223.90;;;88.65;;
84879;SDS011;75141;51.398;21.154;2024-03-08T04:16:48;205.35;;;91.70;;
84879;SDS011;75141;51.398;21.154;2024-03-08T04:17:49;212.73;;;86.38;;
84879;SDS011;75141;51.398;21.154;2024-03-08T04:18:49;209.57;;;83.80;;
84879;SDS011;75141;51.398;21.154;2024-03-08T04:19:50;207.25;;;88.05;;
84879;SDS011;75141;51.398;21.154;2024-03-08T04:20:51;200.30;;;80.97;;
84879;SDS011;75141;51.398;21.154;2024-03-08T04:21:51;196.35;;;82.00;;
84879;SDS011;75141;51.398;21.154;2024-03-08T04:22:52;206.65;;;87.20;;
84879;SDS011;75141;51.398;21.154;2024-03-08T04:23:53;218.85;;;87.15;;
84879;SDS011;75141;51.398;21.154;2024-03-08T04:24:53;201.45;;;81.15;;
84879;SDS011;75141;51.398;21.154;2024-03-08T04:25:54;222.95;;;86.28;;
84879;SDS011;75141;51.398;21.154;2024-03-08T04:26:54;217.93;;;86.97;;
84879;SDS011;75141;51.398;21.154;2024-03-08T04:27:55;208.68;;;85.05;;
84879;SDS011;75141;51.398;21.154;2024-03-08T04:28:55;212.52;;;84.65;;
84879;SDS011;75141;51.398;21.154;2024-03-08T04:29:56;204.40;;;82.97;;
84879;SDS011;75141;51.398;21.154;2024-03-08T04:30:57;191.57;;;80.65;;
84879;SDS011;75141;51.398;21.154;2024-03-08T04:31:58;197.80;;;81.15;;
84879;SDS011;75141;51.398;21.154;2024-03-08T04:32:59;196.95;;;82.60;;
84879;SDS011;75141;51.398;21.154;2024-03-08T04:34:00;207.75;;;82.38;;
84879;SDS011;75141;51.398;21.154;2024-03-08T04:35:00;207.63;;;83.97;;
84879;SDS011;75141;51.398;21.154;2024-03-08T04:36:04;205.30;;;84.13;;
84879;SDS011;75141;51.398;21.154;2024-03-08T04:37:05;203.15;;;83.38;;
84879;SDS011;75141;51.398;21.154;2024-03-08T04:38:05;216.95;;;85.25;;
84879;SDS011;75141;51.398;21.154;2024-03-08T04:39:06;203.13;;;81.57;;
84879;SDS011;75141;51.398;21.154;2024-03-08T04:40:10;197.10;;;78.25;;
84879;SDS011;75141;51.398;21.154;2024-03-08T04:41:11;210.18;;;85.68;;
84879;SDS011;75141;51.398;21.154;2024-03-08T04:42:12;199.15;;;81.18;;
84879;SDS011;75141;51.398;21.154;2024-03-08T04:43:14;201.73;;;79.63;;
84879;SDS011;75141;51.398;21.154;2024-03-08T04:44:15;195.82;;;83.30;;
84879;SDS011;75141;51.398;21.154;2024-03-08T04:45:16;221.43;;;85.82;;
84879;SDS011;75141;51.398;21.154;2024-03-08T04:46:16;217.10;;;85.18;;
84879;SDS011;75141;51.398;21.154;2024-03-08T04:47:17;224.02;;;88.75;;
84879;SDS011;75141;51.398;21.154;2024-03-08T04:48:18;215.32;;;83.28;;
84879;SDS011;75141;51.398;21.154;2024-03-08T04:49:19;218.15;;;86.38;;
84879;SDS011;75141;51.398;21.154;2024-03-08T04:50:20;218.43;;;88.78;;
84879;SDS011;75141;51.398;21.154;2024-03-08T04:51:21;212.95;;;82.25;;
84879;SDS011;75141;51.398;21.154;2024-03-08T04:52:21;231.25;;;89.05;;
84879;SDS011;75141;51.398;21.154;2024-03-08T04:53:22;221.23;;;82.55;;
84879;SDS011;75141;51.398;21.154;2024-03-08T04:54:23;210.63;;;84.40;;
84879;SDS011;75141;51.398;21.154;2024-03-08T04:55:27;217.07;;;87.47;;
84879;SDS011;75141;51.398;21.154;2024-03-08T04:56:27;220.30;;;86.47;;
84879;SDS011;75141;51.398;21.154;2024-03-08T04:57:28;208.75;;;87.22;;
84879;SDS011;75141;51.398;21.154;2024-03-08T04:58:28;213.23;;;87.78;;
84879;SDS011;75141;51.398;21.154;2024-03-08T04:59:29;217.30;;;88.30;;
84879;SDS011;75141;51.398;21.154;2024-03-08T05:00:29;210.15;;;84.63;;
84879;SDS011;75141;51.398;21.154;2024-03-08T05:01:30;212.23;;;85.70;;
84879;SDS011;75141;51.398;21.154;2024-03-08T05:02:31;218.68;;;87.40;;
84879;SDS011;75141;51.398;21.154;2024-03-08T05:03:32;214.00;;;84.90;;
84879;SDS011;75141;51.398;21.154;2024-03-08T05:04:32;214.48;;;83.82;;
84879;SDS011;75141;51.398;21.154;2024-03-08T05:05:33;219.32;;;86.13;;
84879;SDS011;75141;51.398;21.154;2024-03-08T05:06:34;206.07;;;83.95;;
84879;SDS011;75141;51.398;21.154;2024-03-08T05:07:34;217.35;;;84.32;;
84879;SDS011;75141;51.398;21.154;2024-03-08T05:08:35;217.23;;;85.10;;
84879;SDS011;75141;51.398;21.154;2024-03-08T05:09:36;200.15;;;84.30;;
84879;SDS011;75141;51.398;21.154;2024-03-08T05:10:37;185.02;;;82.70;;
84879;SDS011;75141;51.398;21.154;2024-03-08T05:11:39;210.95;;;85.95;;
84879;SDS011;75141;51.398;21.154;2024-03-08T05:12:39;198.70;;;82.22;;
84879;SDS011;75141;51.398;21.154;2024-03-08T05:13:41;200.07;;;82.82;;
84879;SDS011;75141;51.398;21.154;2024-03-08T05:14:41;194.27;;;81.93;;
84879;SDS011;75141;51.398;21.154;2024-03-08T05:15:42;194.18;;;83.35;;
84879;SDS011;75141;51.398;21.154;2024-03-08T05:16:45;204.95;;;85.57;;
84879;SDS011;75141;51.398;21.154;2024-03-08T05:17:49;200.70;;;82.78;;
84879;SDS011;75141;51.398;21.154;2024-03-08T05:18:50;202.20;;;83.78;;
84879;SDS011;75141;51.398;21.154;2024-03-08T05:19:51;209.65;;;82.80;;
84879;SDS011;75141;51.398;21.154;2024-03-08T05:20:52;195.07;;;81.82;;
84879;SDS011;75141;51.398;21.154;2024-03-08T05:21:52;200.15;;;84.03;;
84879;SDS011;75141;51.398;21.154;2024-03-08T05:22:53;188.05;;;79.25;;
84879;SDS011;75141;51.398;21.154;2024-03-08T05:23:53;191.85;;;81.45;;
84879;SDS011;75141;51.398;21.154;2024-03-08T05:24:54;204.52;;;83.93;;
84879;SDS011;75141;51.398;21.154;2024-03-08T05:25:55;189.75;;;80.18;;
84879;SDS011;75141;51.398;21.154;2024-03-08T05:26:56;189.00;;;75.93;;
84879;SDS011;75141;51.398;21.154;2024-03-08T05:27:56;194.30;;;81.43;;
84879;SDS011;75141;51.398;21.154;2024-03-08T05:28:56;183.48;;;78.43;;
84879;SDS011;75141;51.398;21.154;2024-03-08T05:29:57;179.02;;;77.88;;
84879;SDS011;75141;51.398;21.154;2024-03-08T05:30:58;185.43;;;76.65;;
84879;SDS011;75141;51.398;21.154;2024-03-08T05:31:58;174.75;;;73.43;;
84879;SDS011;75141;51.398;21.154;2024-03-08T05:32:59;177.15;;;75.93;;
84879;SDS011;75141;51.398;21.154;2024-03-08T05:34:00;181.57;;;76.35;;
84879;SDS011;75141;51.398;21.154;2024-03-08T05:35:01;178.52;;;75.55;;
84879;SDS011;75141;51.398;21.154;2024-03-08T05:36:03;191.70;;;79.50;;
84879;SDS011;75141;51.398;21.154;2024-03-08T05:37:03;185.90;;;76.55;;
84879;SDS011;75141;51.398;21.154;2024-03-08T05:38:04;189.80;;;75.97;;
84879;SDS011;75141;51.398;21.154;2024-03-08T05:39:05;174.38;;;76.78;;
84879;SDS011;75141;51.398;21.154;2024-03-08T05:40:06;186.80;;;78.38;;
84879;SDS011;75141;51.398;21.154;2024-03-08T05:41:10;189.13;;;79.35;;
84879;SDS011;75141;51.398;21.154;2024-03-08T05:42:12;192.07;;;77.90;;
84879;SDS011;75141;51.398;21.154;2024-03-08T05:43:12;180.23;;;79.03;;
84879;SDS011;75141;51.398;21.154;2024-03-08T05:44:13;175.18;;;77.10;;
84879;SDS011;75141;51.398;21.154;2024-03-08T05:45:13;184.95;;;76.57;;
84879;SDS011;75141;51.398;21.154;2024-03-08T05:46:15;178.63;;;72.88;;